Time;durP1;ratioP1;P1;durP2;ratioP2;P2;SDS_P1;SDS_P2;PMS_P1;PMS_P2;Temp;Humidity;BMP_temperature;BMP_pressure;BME280_temperature;BME280_humidity;BME280_pressure;Samples;Min_cycle;Max_cycle;Signal;HPM_P1;HPM_P2
2022/11/18 00:01:55;;;;;;;3.95;1.90;;;;;;;;;;5078549;28;20028;-57
2022/11/18 00:04:21;;;;;;;4.00;1.92;;;;;;;;;;5075079;28;20023;-57
2022/11/18 00:06:46;;;;;;;4.35;1.98;;;;;;;;;;5083501;28;20125;-58
2022/11/18 00:09:12;;;;;;;3.03;1.52;;;;;;;;;;5084702;28;20131;-59
2022/11/18 00:14:22;;;;;;;5.30;2.08;;;;;;;;;;5083341;28;20453;-58
2022/11/18 00:16:50;;;;;;;6.43;2.20;;;;;;;;;;5078001;28;20045;-59
2022/11/18 00:19:15;;;;;;;6.28;2.13;;;;;;;;;;5086972;28;20103;-58
2022/11/18 00:21:40;;;;;;;10.40;2.15;;;;;;;;;;5080737;28;20153;-58
2022/11/18 00:24:06;;;;;;;8.95;2.47;;;;;;;;;;5074473;28;20021;-58
2022/11/18 00:26:31;;;;;;;5.80;2.00;;;;;;;;;;5090361;28;20505;-58
2022/11/18 00:28:56;;;;;;;5.78;2.22;;;;;;;;;;5085470;28;20107;-58
2022/11/18 00:31:21;;;;;;;5.72;3.15;;;;;;;;;;5092188;28;20028;-58
2022/11/18 00:33:46;;;;;;;7.32;3.10;;;;;;;;;;5070509;28;20017;-59
2022/11/18 00:36:12;;;;;;;9.80;2.83;;;;;;;;;;5086230;28;20473;-58
2022/11/18 00:38:37;;;;;;;7.60;2.17;;;;;;;;;;5092623;28;20028;-58
2022/11/18 00:41:09;;;;;;;5.25;2.47;;;;;;;;;;5085133;28;20412;-58
2022/11/18 00:43:35;;;;;;;10.90;2.45;;;;;;;;;;5078839;28;20472;-57
2022/11/18 00:46:00;;;;;;;7.22;2.40;;;;;;;;;;5090337;28;20035;-58
2022/11/18 00:48:25;;;;;;;5.93;2.30;;;;;;;;;;5082139;28;20066;-58
2022/11/18 00:50:51;;;;;;;13.27;2.72;;;;;;;;;;5079547;28;20374;-58
2022/11/18 00:53:16;;;;;;;6.40;2.75;;;;;;;;;;5092205;28;20488;-58
2022/11/18 00:55:42;;;;;;;6.40;2.60;;;;;;;;;;5090188;28;20098;-58
2022/11/18 00:58:07;;;;;;;6.45;2.60;;;;;;;;;;5087188;28;20549;-58
2022/11/18 01:00:32;;;;;;;4.57;2.40;;;;;;;;;;5086610;28;20024;-58
2022/11/18 01:02:57;;;;;;;8.73;2.60;;;;;;;;;;5075865;28;20044;-58
2022/11/18 01:05:22;;;;;;;9.25;2.55;;;;;;;;;;5088589;28;20024;-58
2022/11/18 01:07:48;;;;;;;8.82;2.40;;;;;;;;;;5091652;28;20052;-58
2022/11/18 01:10:13;;;;;;;5.68;2.20;;;;;;;;;;5085084;28;20081;-58
2022/11/18 01:15:22;;;;;;;7.25;3.10;;;;;;;;;;5073075;28;20230;-58
2022/11/18 01:17:47;;;;;;;9.25;4.20;;;;;;;;;;5077216;28;20013;-58
2022/11/18 01:20:14;;;;;;;9.02;4.20;;;;;;;;;;5085312;28;20031;-59
2022/11/18 01:22:39;;;;;;;12.05;3.53;;;;;;;;;;5080383;28;20015;-57
2022/11/18 01:25:04;;;;;;;10.15;3.28;;;;;;;;;;5075270;28;20016;-58
2022/11/18 01:27:29;;;;;;;8.73;3.60;;;;;;;;;;5073237;28;20502;-58
2022/11/18 01:29:55;;;;;;;11.57;3.15;;;;;;;;;;5075256;28;20024;-58
2022/11/18 01:32:20;;;;;;;8.45;2.70;;;;;;;;;;5085465;28;20031;-58
2022/11/18 01:34:45;;;;;;;11.13;3.42;;;;;;;;;;5081553;28;20019;-58
2022/11/18 01:37:10;;;;;;;5.13;3.22;;;;;;;;;;5089274;28;20493;-58
2022/11/18 01:39:36;;;;;;;9.88;3.85;;;;;;;;;;5083843;28;20633;-58
2022/11/18 01:42:01;;;;;;;11.32;3.67;;;;;;;;;;5081768;28;20019;-58
2022/11/18 01:44:45;;;;;;;8.40;3.72;;;;;;;;;;5078985;28;20031;-58
2022/11/18 01:47:10;;;;;;;12.00;3.92;;;;;;;;;;5085794;28;20027;-57
2022/11/18 01:49:36;;;;;;;8.32;3.00;;;;;;;;;;5107645;27;20522;-58
2022/11/18 01:52:01;;;;;;;13.32;3.28;;;;;;;;;;5077022;28;20080;-58
2022/11/18 01:54:28;;;;;;;11.48;3.20;;;;;;;;;;5078068;28;20482;-58
2022/11/18 01:56:55;;;;;;;14.68;2.90;;;;;;;;;;5079202;28;20208;-58
2022/11/18 01:59:21;;;;;;;9.18;3.20;;;;;;;;;;5073325;28;20385;-58
2022/11/18 02:01:46;;;;;;;7.22;2.88;;;;;;;;;;5085600;28;20024;-58
2022/11/18 02:04:11;;;;;;;13.35;3.47;;;;;;;;;;5082530;28;20025;-58
2022/11/18 02:06:37;;;;;;;8.82;2.88;;;;;;;;;;5089329;28;20047;-58
2022/11/18 02:09:02;;;;;;;7.60;3.17;;;;;;;;;;5081924;28;20025;-58
2022/11/18 02:14:11;;;;;;;8.10;2.97;;;;;;;;;;5085286;28;20624;-58
2022/11/18 02:16:59;;;;;;;8.93;3.17;;;;;;;;;;5084012;28;20019;-58
2022/11/18 02:19:24;;;;;;;7.60;2.92;;;;;;;;;;5121620;27;20021;-58
2022/11/18 02:22:09;;;;;;;8.23;3.13;;;;;;;;;;5076149;28;20569;-58
2022/11/18 02:24:44;;;;;;;7.47;2.47;;;;;;;;;;5081090;28;20494;-58
2022/11/18 02:27:21;;;;;;;8.48;2.85;;;;;;;;;;5075069;28;20016;-58
2022/11/18 02:30:22;;;;;;;7.60;2.70;;;;;;;;;;5077507;28;20034;-58
2022/11/18 02:33:02;;;;;;;7.57;3.15;;;;;;;;;;5052888;28;20475;-58
2022/11/18 02:35:27;;;;;;;8.13;2.95;;;;;;;;;;5075620;28;20059;-58
2022/11/18 02:38:06;;;;;;;10.43;3.38;;;;;;;;;;5074966;28;20106;-58
2022/11/18 02:40:32;;;;;;;11.57;3.13;;;;;;;;;;5084833;28;20051;-58
2022/11/18 02:43:02;;;;;;;9.30;3.42;;;;;;;;;;5080588;28;20564;-58
2022/11/18 02:45:27;;;;;;;10.45;3.20;;;;;;;;;;5110224;27;20326;-58
2022/11/18 02:47:52;;;;;;;11.02;3.33;;;;;;;;;;5068112;28;20020;-58
2022/11/18 02:50:19;;;;;;;7.45;2.72;;;;;;;;;;5078101;28;20024;-58
2022/11/18 02:52:44;;;;;;;13.30;4.25;;;;;;;;;;5074933;28;20024;-58
2022/11/18 02:55:10;;;;;;;11.32;4.80;;;;;;;;;;5073266;28;20043;-58
2022/11/18 02:57:35;;;;;;;16.25;4.50;;;;;;;;;;5112100;27;20017;-58
2022/11/18 03:00:00;;;;;;;17.02;6.13;;;;;;;;;;5107290;27;20059;-58
2022/11/18 03:02:26;;;;;;;14.27;5.32;;;;;;;;;;5073880;28;20051;-58
2022/11/18 03:04:52;;;;;;;16.52;5.97;;;;;;;;;;5071160;28;20165;-58
2022/11/18 03:07:18;;;;;;;11.90;5.07;;;;;;;;;;5071601;28;20085;-58
2022/11/18 03:09:45;;;;;;;15.45;4.60;;;;;;;;;;5114133;27;20038;-58
2022/11/18 03:12:23;;;;;;;11.23;4.43;;;;;;;;;;5075339;28;20081;-57
2022/11/18 03:14:51;;;;;;;10.15;3.45;;;;;;;;;;5084000;28;20020;-58
2022/11/18 03:17:19;;;;;;;8.75;3.20;;;;;;;;;;5080826;28;20021;-58
2022/11/18 03:19:47;;;;;;;13.10;4.60;;;;;;;;;;5074319;28;20035;-57
2022/11/18 03:22:15;;;;;;;11.65;4.20;;;;;;;;;;5075910;28;20517;-58
2022/11/18 03:24:42;;;;;;;13.57;4.18;;;;;;;;;;5078507;28;20036;-58
2022/11/18 03:27:15;;;;;;;10.55;3.92;;;;;;;;;;5103719;27;20302;-58
2022/11/18 03:29:43;;;;;;;14.35;4.18;;;;;;;;;;5111942;27;20038;-58
2022/11/18 03:32:09;;;;;;;8.13;3.78;;;;;;;;;;5083007;28;20417;-58
2022/11/18 03:34:39;;;;;;;12.50;4.07;;;;;;;;;;5090480;28;20029;-58
2022/11/18 03:37:05;;;;;;;11.50;3.38;;;;;;;;;;5074262;28;20027;-58
2022/11/18 03:39:31;;;;;;;8.32;3.67;;;;;;;;;;5083702;28;20035;-58
2022/11/18 03:41:59;;;;;;;10.52;4.18;;;;;;;;;;5114069;27;20102;-58
2022/11/18 03:44:26;;;;;;;10.80;4.10;;;;;;;;;;5073984;28;20520;-59
2022/11/18 03:46:54;;;;;;;10.07;3.58;;;;;;;;;;5075993;28;20153;-58
2022/11/18 03:49:21;;;;;;;9.45;3.90;;;;;;;;;;5078482;28;20024;-58
2022/11/18 03:51:50;;;;;;;13.85;3.83;;;;;;;;;;5079634;28;20020;-58
2022/11/18 03:54:18;;;;;;;8.02;3.40;;;;;;;;;;5082820;28;20023;-58
2022/11/18 03:56:45;;;;;;;11.57;3.63;;;;;;;;;;5087129;28;20030;-58
2022/11/18 03:59:20;;;;;;;10.02;2.88;;;;;;;;;;5070237;28;20036;-58
2022/11/18 04:01:48;;;;;;;8.25;3.40;;;;;;;;;;5079852;28;20548;-58
2022/11/18 04:04:13;;;;;;;11.00;3.97;;;;;;;;;;5090656;28;20454;-60
2022/11/18 04:06:44;;;;;;;5.38;3.00;;;;;;;;;;5088693;28;20501;-58
2022/11/18 04:09:10;;;;;;;9.02;3.38;;;;;;;;;;5076103;28;20612;-58
2022/11/18 04:12:22;;;;;;;7.32;3.50;;;;;;;;;;5078897;28;20523;-58
2022/11/18 04:14:23;;;;;;;8.32;3.10;;;;;;;;;;5077898;27;20050;-58
2022/11/18 04:16:49;;;;;;;13.73;3.90;;;;;;;;;;5083861;28;20406;-58
2022/11/18 04:19:14;;;;;;;9.30;3.60;;;;;;;;;;5080657;28;20511;-58
2022/11/18 04:21:39;;;;;;;9.48;3.55;;;;;;;;;;5090024;28;20104;-59
2022/11/18 04:24:05;;;;;;;8.80;3.97;;;;;;;;;;5073966;28;20044;-58
2022/11/18 04:26:30;;;;;;;14.68;4.13;;;;;;;;;;5090267;28;20060;-58
2022/11/18 04:28:55;;;;;;;8.98;3.70;;;;;;;;;;5082695;28;20521;-58
2022/11/18 04:31:20;;;;;;;9.93;4.40;;;;;;;;;;5091915;28;20621;-58
2022/11/18 04:33:46;;;;;;;8.93;3.85;;;;;;;;;;5080843;28;20370;-58
2022/11/18 04:36:11;;;;;;;11.43;4.82;;;;;;;;;;5084045;28;20020;-58
2022/11/18 04:38:36;;;;;;;10.18;4.00;;;;;;;;;;5091710;28;20528;-58
2022/11/18 04:41:01;;;;;;;10.43;4.38;;;;;;;;;;5082299;28;20028;-58
2022/11/18 04:43:27;;;;;;;11.80;4.10;;;;;;;;;;5085896;28;20116;-58
2022/11/18 04:45:52;;;;;;;11.82;4.22;;;;;;;;;;5112845;27;20031;-58
2022/11/18 04:48:18;;;;;;;10.35;4.13;;;;;;;;;;5084415;28;20012;-58
2022/11/18 04:50:43;;;;;;;19.13;5.18;;;;;;;;;;5078156;28;20034;-58
2022/11/18 04:53:08;;;;;;;12.23;4.95;;;;;;;;;;5095186;28;20073;-58
2022/11/18 04:55:36;;;;;;;10.25;4.50;;;;;;;;;;5080025;28;20561;-58
2022/11/18 04:58:01;;;;;;;10.40;4.57;;;;;;;;;;5076331;28;20024;-58
2022/11/18 05:00:27;;;;;;;10.35;4.10;;;;;;;;;;5077548;28;20534;-58
2022/11/18 05:02:52;;;;;;;16.17;5.22;;;;;;;;;;5086500;28;20064;-58
2022/11/18 05:05:17;;;;;;;11.60;4.50;;;;;;;;;;5081712;28;20044;-58
2022/11/18 05:07:42;;;;;;;16.67;5.25;;;;;;;;;;5076821;28;20052;-59
2022/11/18 05:10:08;;;;;;;15.35;4.60;;;;;;;;;;5071577;28;20016;-59
2022/11/18 05:12:48;;;;;;;13.27;4.90;;;;;;;;;;5086672;28;20021;-59
2022/11/18 05:15:14;;;;;;;9.63;5.03;;;;;;;;;;5086277;27;20024;-58
2022/11/18 05:17:42;;;;;;;19.38;5.00;;;;;;;;;;5079964;28;20068;-58
2022/11/18 05:20:07;;;;;;;9.38;5.22;;;;;;;;;;5113166;27;20102;-56
2022/11/18 05:22:32;;;;;;;11.00;4.90;;;;;;;;;;5089082;28;20028;-58
2022/11/18 05:24:58;;;;;;;11.65;5.28;;;;;;;;;;5082598;28;20023;-57
2022/11/18 05:27:23;;;;;;;14.27;5.60;;;;;;;;;;5081731;28;20017;-59
2022/11/18 05:29:48;;;;;;;13.73;5.32;;;;;;;;;;5079466;28;20027;-58
2022/11/18 05:32:13;;;;;;;14.52;4.72;;;;;;;;;;5077292;28;20021;-59
2022/11/18 05:34:39;;;;;;;21.75;6.20;;;;;;;;;;5092143;28;20436;-59
2022/11/18 05:37:04;;;;;;;16.60;5.88;;;;;;;;;;5081481;28;20024;-59
2022/11/18 05:39:30;;;;;;;17.52;5.50;;;;;;;;;;5073645;28;20453;-59
2022/11/18 05:44:40;;;;;;;13.82;4.72;;;;;;;;;;5084880;28;20480;-58
2022/11/18 05:47:05;;;;;;;11.45;5.40;;;;;;;;;;5078735;28;20095;-59
2022/11/18 05:49:30;;;;;;;11.70;5.20;;;;;;;;;;5078999;28;20405;-59
2022/11/18 05:51:55;;;;;;;13.95;6.18;;;;;;;;;;5085849;28;20051;-58
2022/11/18 05:54:20;;;;;;;15.88;6.60;;;;;;;;;;5077188;28;20359;-59
2022/11/18 05:56:46;;;;;;;18.33;6.45;;;;;;;;;;5085052;28;20028;-59
2022/11/18 05:59:12;;;;;;;15.13;6.05;;;;;;;;;;5086434;28;20593;-59
2022/11/18 06:01:37;;;;;;;14.48;6.28;;;;;;;;;;5076647;28;20120;-59
2022/11/18 06:04:03;;;;;;;17.83;8.23;;;;;;;;;;5077790;28;20558;-59
2022/11/18 06:06:28;;;;;;;13.88;6.60;;;;;;;;;;5079145;28;20052;-60
2022/11/18 06:08:55;;;;;;;23.00;7.88;;;;;;;;;;5082303;28;20038;-59
2022/11/18 06:11:20;;;;;;;13.27;6.25;;;;;;;;;;5084351;28;20474;-59
2022/11/18 06:13:49;;;;;;;17.13;6.13;;;;;;;;;;5080859;28;20060;-59
2022/11/18 06:16:15;;;;;;;12.48;6.05;;;;;;;;;;5081756;28;20069;-59
2022/11/18 06:18:40;;;;;;;12.13;6.10;;;;;;;;;;5080173;28;20023;-59
2022/11/18 06:21:05;;;;;;;14.95;5.47;;;;;;;;;;5075397;28;20032;-58
2022/11/18 06:23:32;;;;;;;15.05;5.90;;;;;;;;;;5085947;28;20032;-59
2022/11/18 06:25:57;;;;;;;18.58;6.15;;;;;;;;;;5077566;28;20164;-59
2022/11/18 06:28:23;;;;;;;10.27;5.60;;;;;;;;;;5069267;28;20420;-59
2022/11/18 06:30:48;;;;;;;14.95;5.78;;;;;;;;;;5080027;28;20429;-59
2022/11/18 06:33:13;;;;;;;14.05;5.70;;;;;;;;;;5074972;28;20048;-58
2022/11/18 06:35:40;;;;;;;16.92;5.72;;;;;;;;;;5085190;28;20076;-58
2022/11/18 06:38:06;;;;;;;12.73;7.05;;;;;;;;;;5074417;28;20095;-58
2022/11/18 06:40:31;;;;;;;14.00;8.27;;;;;;;;;;5079777;28;20032;-58
2022/11/18 06:46:54;;;;;;;13.40;6.63;;;;;;;;;;5076718;28;20139;-58
2022/11/18 06:48:25;;;;;;;14.40;8.75;;;;;;;;;;5072882;28;20036;-59
2022/11/18 06:50:50;;;;;;;12.90;7.90;;;;;;;;;;5085355;28;20050;-58
2022/11/18 06:53:15;;;;;;;14.65;6.80;;;;;;;;;;5081592;28;20020;-58
2022/11/18 06:55:41;;;;;;;15.25;6.70;;;;;;;;;;5076787;28;20016;-58
2022/11/18 06:58:06;;;;;;;21.00;7.43;;;;;;;;;;5075063;28;20061;-59
2022/11/18 07:00:31;;;;;;;14.60;7.22;;;;;;;;;;5086127;28;20054;-59
2022/11/18 07:02:56;;;;;;;13.27;6.05;;;;;;;;;;5080601;28;20461;-58
2022/11/18 07:05:22;;;;;;;14.35;6.43;;;;;;;;;;5080389;28;20727;-58
2022/11/18 07:07:47;;;;;;;10.55;6.18;;;;;;;;;;5081453;28;20410;-58
2022/11/18 07:10:12;;;;;;;9.73;5.85;;;;;;;;;;5080487;28;20050;-58
2022/11/18 07:12:37;;;;;;;11.32;6.75;;;;;;;;;;5081984;28;20047;-58
2022/11/18 07:15:03;;;;;;;11.20;7.28;;;;;;;;;;5065661;28;20442;-57
2022/11/18 07:17:29;;;;;;;24.65;7.43;;;;;;;;;;5078228;28;20047;-59
2022/11/18 07:19:54;;;;;;;15.13;6.82;;;;;;;;;;5071153;28;20031;-59
2022/11/18 07:22:19;;;;;;;15.50;7.63;;;;;;;;;;5077166;28;20127;-58
2022/11/18 07:24:44;;;;;;;17.40;7.72;;;;;;;;;;5081927;28;20012;-58
2022/11/18 07:27:10;;;;;;;15.35;6.93;;;;;;;;;;5078027;28;20105;-58
2022/11/18 07:29:35;;;;;;;14.80;7.05;;;;;;;;;;5087174;28;20042;-59
2022/11/18 07:32:00;;;;;;;12.82;6.53;;;;;;;;;;5083755;28;20427;-59
2022/11/18 07:34:25;;;;;;;15.48;8.20;;;;;;;;;;5085853;28;20013;-58
2022/11/18 07:36:50;;;;;;;12.40;7.45;;;;;;;;;;5072404;28;20134;-59
2022/11/18 07:39:16;;;;;;;13.02;6.22;;;;;;;;;;5085780;28;20028;-59
2022/11/18 07:41:41;;;;;;;11.63;5.38;;;;;;;;;;5078169;28;20028;-59
2022/11/18 07:44:06;;;;;;;12.73;5.68;;;;;;;;;;5078195;28;20030;-58
2022/11/18 07:46:31;;;;;;;8.05;5.30;;;;;;;;;;5074168;28;20051;-58
2022/11/18 07:48:57;;;;;;;13.02;5.50;;;;;;;;;;5086337;28;20012;-59
2022/11/18 07:51:23;;;;;;;12.55;6.55;;;;;;;;;;5073880;28;20032;-59
2022/11/18 07:53:49;;;;;;;10.15;5.40;;;;;;;;;;5077385;28;20013;-58
2022/11/18 07:56:14;;;;;;;12.02;6.18;;;;;;;;;;5080031;28;20076;-59
2022/11/18 07:58:40;;;;;;;11.43;6.82;;;;;;;;;;5080788;28;20024;-58
2022/11/18 08:01:06;;;;;;;10.23;5.50;;;;;;;;;;5068774;28;21053;-58
2022/11/18 08:03:31;;;;;;;11.15;5.13;;;;;;;;;;5081150;28;20031;-59
2022/11/18 08:05:59;;;;;;;9.07;5.35;;;;;;;;;;5081551;28;20036;-58
2022/11/18 08:08:24;;;;;;;15.30;6.88;;;;;;;;;;5081585;28;20220;-59
2022/11/18 08:10:50;;;;;;;13.38;6.72;;;;;;;;;;5068641;28;20044;-59
2022/11/18 08:13:15;;;;;;;12.13;5.15;;;;;;;;;;5079676;28;20027;-59
2022/11/18 08:15:41;;;;;;;10.65;6.18;;;;;;;;;;5079162;28;20032;-58
2022/11/18 08:18:06;;;;;;;15.63;6.88;;;;;;;;;;5082335;28;20020;-58
2022/11/18 08:20:32;;;;;;;12.90;6.28;;;;;;;;;;5078019;28;20043;-58
2022/11/18 08:22:58;;;;;;;12.40;5.40;;;;;;;;;;5076488;28;20040;-58
2022/11/18 08:25:23;;;;;;;12.10;4.93;;;;;;;;;;5080819;28;20103;-59
2022/11/18 08:27:48;;;;;;;14.68;5.18;;;;;;;;;;5076386;28;20044;-58
2022/11/18 08:30:13;;;;;;;11.23;5.03;;;;;;;;;;5068706;28;20423;-58
2022/11/18 08:32:39;;;;;;;12.98;5.53;;;;;;;;;;5119486;27;20110;-59
2022/11/18 08:35:04;;;;;;;12.20;5.55;;;;;;;;;;5075674;28;20024;-59
2022/11/18 08:37:29;;;;;;;12.15;5.15;;;;;;;;;;5075867;28;20019;-58
2022/11/18 08:39:55;;;;;;;10.15;4.55;;;;;;;;;;5076872;28;20383;-58
2022/11/18 08:42:21;;;;;;;11.23;4.78;;;;;;;;;;5072692;28;20580;-58
2022/11/18 08:44:46;;;;;;;13.73;5.95;;;;;;;;;;5076203;28;20034;-58
2022/11/18 08:47:12;;;;;;;9.95;5.25;;;;;;;;;;5073210;28;20107;-58
2022/11/18 08:49:37;;;;;;;9.38;4.55;;;;;;;;;;5079251;28;20398;-58
2022/11/18 08:52:02;;;;;;;11.02;4.75;;;;;;;;;;5077079;28;20056;-58
2022/11/18 08:54:27;;;;;;;8.70;5.13;;;;;;;;;;5081279;28;20024;-58
2022/11/18 08:56:53;;;;;;;10.68;4.80;;;;;;;;;;5068775;28;20696;-58
2022/11/18 08:59:18;;;;;;;9.35;4.30;;;;;;;;;;5070051;28;20017;-58
2022/11/18 09:01:43;;;;;;;9.48;4.68;;;;;;;;;;5079666;28;20067;-58
2022/11/18 09:04:09;;;;;;;12.43;4.47;;;;;;;;;;5082870;28;20020;-57
2022/11/18 09:06:37;;;;;;;6.72;4.28;;;;;;;;;;5074618;28;20687;-59
2022/11/18 09:09:02;;;;;;;5.38;3.63;;;;;;;;;;5077832;28;20080;-58
2022/11/18 09:11:27;;;;;;;10.77;4.10;;;;;;;;;;5072938;28;20123;-58
2022/11/18 09:13:53;;;;;;;8.10;3.78;;;;;;;;;;5074646;28;20024;-57
2022/11/18 09:16:18;;;;;;;9.93;5.00;;;;;;;;;;5075927;28;20108;-58
2022/11/18 09:18:43;;;;;;;9.80;4.00;;;;;;;;;;5071088;28;20366;-57
2022/11/18 09:21:09;;;;;;;10.40;4.32;;;;;;;;;;5074863;28;20031;-57
2022/11/18 09:23:34;;;;;;;12.88;4.45;;;;;;;;;;5080019;28;20371;-57
2022/11/18 09:26:07;;;;;;;12.00;4.15;;;;;;;;;;5080167;28;20021;-57
2022/11/18 09:28:32;;;;;;;11.27;3.72;;;;;;;;;;5074611;28;20056;-59
2022/11/18 09:30:57;;;;;;;9.00;4.20;;;;;;;;;;5070385;28;20514;-59
2022/11/18 09:33:22;;;;;;;8.23;4.20;;;;;;;;;;5072485;28;20586;-59
2022/11/18 09:35:48;;;;;;;10.25;4.10;;;;;;;;;;5077461;28;20073;-59
2022/11/18 09:38:13;;;;;;;10.00;4.20;;;;;;;;;;5077514;28;20074;-59
2022/11/18 09:40:44;;;;;;;11.15;3.88;;;;;;;;;;5082549;28;20084;-58
2022/11/18 09:43:12;;;;;;;9.45;3.83;;;;;;;;;;5076182;28;20031;-59
2022/11/18 09:45:38;;;;;;;9.68;3.42;;;;;;;;;;5073765;28;20490;-59
2022/11/18 09:48:12;;;;;;;7.97;3.50;;;;;;;;;;5070713;28;20056;-59
2022/11/18 09:50:38;;;;;;;7.95;2.95;;;;;;;;;;5073157;28;20020;-59
2022/11/18 09:53:06;;;;;;;5.88;3.00;;;;;;;;;;5077417;28;20039;-59
2022/11/18 09:55:31;;;;;;;9.68;3.85;;;;;;;;;;5073773;28;20506;-59
2022/11/18 09:57:57;;;;;;;5.78;3.05;;;;;;;;;;5068423;28;20054;-59
2022/11/18 10:00:23;;;;;;;8.70;3.17;;;;;;;;;;5073591;28;20112;-59
2022/11/18 10:03:06;;;;;;;8.98;2.67;;;;;;;;;;5086831;28;20028;-58
2022/11/18 10:05:37;;;;;;;6.65;2.58;;;;;;;;;;5078023;28;20016;-58
2022/11/18 10:08:21;;;;;;;7.32;2.63;;;;;;;;;;5090075;28;20124;-58
2022/11/18 10:10:55;;;;;;;5.82;2.80;;;;;;;;;;5083287;28;20029;-58
2022/11/18 10:13:30;;;;;;;5.82;2.30;;;;;;;;;;5104233;27;20021;-58
2022/11/18 10:16:19;;;;;;;7.60;2.05;;;;;;;;;;5079450;28;20043;-58
2022/11/18 10:19:07;;;;;;;2.45;1.70;;;;;;;;;;5076993;28;20055;-58
2022/11/18 10:22:08;;;;;;;2.50;1.55;;;;;;;;;;5072028;28;20373;-58
2022/11/18 10:24:38;;;;;;;3.83;1.50;;;;;;;;;;5037248;28;20038;-58
2022/11/18 10:27:07;;;;;;;6.22;1.73;;;;;;;;;;5079718;28;20035;-58
2022/11/18 10:29:32;;;;;;;2.72;1.50;;;;;;;;;;5106721;27;20427;-58
2022/11/18 10:31:57;;;;;;;4.40;1.80;;;;;;;;;;5077043;28;20063;-58
2022/11/18 10:34:22;;;;;;;5.82;1.95;;;;;;;;;;5082170;28;20028;-58
2022/11/18 10:37:01;;;;;;;8.43;1.80;;;;;;;;;;5081519;28;20023;-58
2022/11/18 10:39:26;;;;;;;4.28;1.70;;;;;;;;;;5092017;28;20038;-59
2022/11/18 10:41:59;;;;;;;8.82;1.92;;;;;;;;;;5076917;28;20474;-59
2022/11/18 10:44:37;;;;;;;4.28;1.55;;;;;;;;;;5071687;28;20021;-59
2022/11/18 10:47:22;;;;;;;4.22;1.65;;;;;;;;;;5079384;28;20039;-59
2022/11/18 10:49:47;;;;;;;4.38;1.70;;;;;;;;;;5078815;28;20085;-58
2022/11/18 10:52:13;;;;;;;7.63;1.77;;;;;;;;;;5076324;28;20028;-58
2022/11/18 10:54:38;;;;;;;4.68;1.70;;;;;;;;;;5074297;28;20023;-58
2022/11/18 10:57:05;;;;;;;4.60;1.70;;;;;;;;;;5083994;28;20599;-58
2022/11/18 10:59:31;;;;;;;3.55;1.63;;;;;;;;;;5080939;28;20024;-59
2022/11/18 11:02:15;;;;;;;5.65;1.60;;;;;;;;;;5082025;28;20051;-58
2022/11/18 11:04:40;;;;;;;5.75;1.70;;;;;;;;;;5094688;28;20035;-59
2022/11/18 11:07:15;;;;;;;7.22;1.85;;;;;;;;;;5079857;28;20456;-59
2022/11/18 11:09:40;;;;;;;4.43;1.60;;;;;;;;;;5082594;28;20031;-58
2022/11/18 11:12:15;;;;;;;3.03;1.70;;;;;;;;;;5070429;28;20375;-58
2022/11/18 11:14:49;;;;;;;4.85;1.90;;;;;;;;;;5085709;28;20157;-58
2022/11/18 11:17:17;;;;;;;6.18;1.90;;;;;;;;;;5084837;28;20069;-59
2022/11/18 11:19:54;;;;;;;4.28;1.52;;;;;;;;;;5085649;28;20046;-58
2022/11/18 11:22:20;;;;;;;5.30;1.48;;;;;;;;;;5082028;28;20020;-58
2022/11/18 11:24:45;;;;;;;5.15;1.52;;;;;;;;;;5081991;28;20035;-58
2022/11/18 11:27:13;;;;;;;5.72;1.50;;;;;;;;;;5077399;28;20024;-58
2022/11/18 11:29:57;;;;;;;8.48;2.60;;;;;;;;;;5082170;28;20396;-57
2022/11/18 11:32:29;;;;;;;3.95;1.80;;;;;;;;;;5077323;28;20028;-58
2022/11/18 11:34:54;;;;;;;6.28;1.80;;;;;;;;;;5075203;28;20024;-58
2022/11/18 11:37:28;;;;;;;3.05;1.60;;;;;;;;;;5085326;28;20325;-58
2022/11/18 11:40:00;;;;;;;6.22;1.60;;;;;;;;;;5087023;28;20342;-58
2022/11/18 11:42:40;;;;;;;4.13;1.73;;;;;;;;;;5079207;28;20081;-58
2022/11/18 11:45:28;;;;;;;4.47;1.52;;;;;;;;;;5109057;27;20026;-58
2022/11/18 11:48:05;;;;;;;5.13;1.58;;;;;;;;;;5082109;28;20038;-58
2022/11/18 11:50:55;;;;;;;7.78;1.80;;;;;;;;;;5080359;28;20058;-58
2022/11/18 11:53:28;;;;;;;4.88;1.80;;;;;;;;;;5075947;28;20016;-58
2022/11/18 11:56:12;;;;;;;8.48;1.90;;;;;;;;;;5071818;28;20112;-58
2022/11/18 11:58:56;;;;;;;3.78;1.38;;;;;;;;;;5084717;28;20028;-57
2022/11/18 12:01:26;;;;;;;4.75;1.63;;;;;;;;;;5078339;28;20040;-58
2022/11/18 12:04:00;;;;;;;7.18;1.65;;;;;;;;;;5081112;28;20019;-58
2022/11/18 12:06:25;;;;;;;7.90;1.60;;;;;;;;;;5073910;28;20052;-57
2022/11/18 12:09:09;;;;;;;3.15;1.77;;;;;;;;;;5084765;28;20020;-58
2022/11/18 12:12:33;;;;;;;7.05;1.70;;;;;;;;;;5083824;28;20032;-58
2022/11/18 12:14:53;;;;;;;11.25;2.10;;;;;;;;;;5066429;28;20027;-57
2022/11/18 12:17:32;;;;;;;4.55;1.52;;;;;;;;;;5103239;27;20443;-57
2022/11/18 12:19:57;;;;;;;5.60;1.50;;;;;;;;;;5082316;28;20027;-57
2022/11/18 12:22:22;;;;;;;6.97;2.10;;;;;;;;;;5087581;28;20409;-57
2022/11/18 12:24:48;;;;;;;6.32;1.73;;;;;;;;;;5086198;28;20453;-57
2022/11/18 12:27:22;;;;;;;5.60;1.60;;;;;;;;;;5077162;28;20025;-56
2022/11/18 12:29:47;;;;;;;6.55;2.05;;;;;;;;;;5079631;28;20039;-57
2022/11/18 12:32:25;;;;;;;12.20;4.47;;;;;;;;;;5076154;28;20020;-57
2022/11/18 12:35:09;;;;;;;5.80;2.22;;;;;;;;;;5080937;28;20584;-57
2022/11/18 12:37:34;;;;;;;6.30;1.80;;;;;;;;;;5081739;28;20099;-57
2022/11/18 12:40:00;;;;;;;4.93;2.22;;;;;;;;;;5076872;28;20107;-57
2022/11/18 12:45:39;;;;;;;4.95;1.98;;;;;;;;;;5087447;28;20440;-57
2022/11/18 12:48:23;;;;;;;5.60;1.60;;;;;;;;;;5079358;28;20061;-59
2022/11/18 12:50:48;;;;;;;6.22;1.85;;;;;;;;;;5076493;28;20024;-57
2022/11/18 12:53:52;;;;;;;5.30;1.50;;;;;;;;;;5077446;28;20503;-58
2022/11/18 12:56:17;;;;;;;5.50;1.50;;;;;;;;;;4983431;28;20045;-58
2022/11/18 12:58:43;;;;;;;6.07;1.60;;;;;;;;;;4984396;28;20384;-58
2022/11/18 13:01:09;;;;;;;4.07;1.60;;;;;;;;;;5024715;28;20089;-58
2022/11/18 13:03:35;;;;;;;6.97;1.75;;;;;;;;;;5077284;28;20419;-58
2022/11/18 13:06:01;;;;;;;5.40;1.50;;;;;;;;;;5076061;28;20108;-58
2022/11/18 13:08:26;;;;;;;5.03;1.60;;;;;;;;;;5083097;28;20062;-58
2022/11/18 13:11:43;;;;;;;6.07;1.80;;;;;;;;;;5070367;28;20056;-58
2022/11/18 13:13:37;;;;;;;9.70;1.75;;;;;;;;;;5078793;28;20391;-58
2022/11/18 13:18:51;;;;;;;7.88;1.63;;;;;;;;;;5072583;28;20031;-59
2022/11/18 13:24:03;;;;;;;7.55;1.83;;;;;;;;;;5076032;28;20168;-58
2022/11/18 13:26:32;;;;;;;10.70;1.90;;;;;;;;;;5076258;28;20106;-57
2022/11/18 13:29:16;;;;;;;7.45;1.90;;;;;;;;;;5079810;28;20055;-57
2022/11/18 13:31:41;;;;;;;5.93;1.73;;;;;;;;;;5085457;28;20520;-57
2022/11/18 13:34:17;;;;;;;2.35;1.27;;;;;;;;;;5079280;28;20020;-58
2022/11/18 13:36:43;;;;;;;5.07;1.73;;;;;;;;;;5081460;28;20108;-58
2022/11/18 13:39:16;;;;;;;9.07;1.80;;;;;;;;;;5074313;28;20103;-58
2022/11/18 13:41:42;;;;;;;5.00;1.70;;;;;;;;;;5121150;27;20089;-58
2022/11/18 13:44:11;;;;;;;6.60;1.88;;;;;;;;;;5078081;28;20024;-58
2022/11/18 13:46:36;;;;;;;4.78;1.77;;;;;;;;;;5080233;28;20505;-58
2022/11/18 13:49:02;;;;;;;4.60;1.90;;;;;;;;;;5075097;28;20020;-57
2022/11/18 13:51:27;;;;;;;7.03;1.70;;;;;;;;;;5074321;28;20439;-58
2022/11/18 13:53:52;;;;;;;7.47;1.77;;;;;;;;;;5080683;28;20020;-58
2022/11/18 13:56:19;;;;;;;4.53;1.73;;;;;;;;;;5084198;28;20053;-58
2022/11/18 13:58:50;;;;;;;9.45;2.13;;;;;;;;;;5072356;28;20531;-58
2022/11/18 14:01:20;;;;;;;5.00;1.92;;;;;;;;;;5107904;27;20036;-57
2022/11/18 14:03:51;;;;;;;6.53;2.27;;;;;;;;;;5071599;28;20118;-57
2022/11/18 14:06:28;;;;;;;6.13;1.90;;;;;;;;;;5076412;28;20102;-57
2022/11/18 14:09:02;;;;;;;6.25;1.80;;;;;;;;;;5078051;28;20024;-58
2022/11/18 14:11:38;;;;;;;7.28;2.13;;;;;;;;;;5080112;28;20024;-57
2022/11/18 14:14:03;;;;;;;5.07;1.75;;;;;;;;;;5090890;28;20020;-58
2022/11/18 14:16:29;;;;;;;6.10;2.25;;;;;;;;;;5084329;28;20042;-57
2022/11/18 14:18:54;;;;;;;6.20;1.92;;;;;;;;;;5086872;28;20016;-57
2022/11/18 14:21:49;;;;;;;6.10;2.63;;;;;;;;;;5077461;28;20024;-58
2022/11/18 14:24:14;;;;;;;6.20;2.50;;;;;;;;;;5077036;28;20277;-57
2022/11/18 14:26:40;;;;;;;9.57;2.63;;;;;;;;;;5076790;28;20024;-57
2022/11/18 14:29:21;;;;;;;7.88;2.70;;;;;;;;;;5112996;27;20024;-57
2022/11/18 14:32:22;;;;;;;4.80;1.85;;;;;;;;;;5078253;28;20058;-57
2022/11/18 14:34:59;;;;;;;4.55;1.90;;;;;;;;;;5000476;28;20039;-57
2022/11/18 14:37:25;;;;;;;5.53;2.20;;;;;;;;;;5068569;28;20565;-57
2022/11/18 14:39:53;;;;;;;7.53;1.80;;;;;;;;;;5083322;28;20085;-57
2022/11/18 14:42:19;;;;;;;11.55;2.20;;;;;;;;;;5091289;28;20122;-57
2022/11/18 14:44:44;;;;;;;5.82;2.92;;;;;;;;;;5077573;28;20027;-57
2022/11/18 14:47:27;;;;;;;4.43;2.00;;;;;;;;;;5080143;28;20032;-58
2022/11/18 14:49:52;;;;;;;4.45;2.30;;;;;;;;;;5070965;28;20107;-58
2022/11/18 14:52:18;;;;;;;7.30;2.20;;;;;;;;;;5085498;28;20150;-58
2022/11/18 14:54:43;;;;;;;4.95;1.83;;;;;;;;;;5077626;28;20069;-57
2022/11/18 14:57:13;;;;;;;6.15;1.90;;;;;;;;;;5069634;28;20036;-57
2022/11/18 14:59:38;;;;;;;4.47;1.92;;;;;;;;;;5075833;28;20410;-58
2022/11/18 15:02:03;;;;;;;3.42;1.85;;;;;;;;;;5070958;28;20137;-57
2022/11/18 15:04:28;;;;;;;5.13;1.60;;;;;;;;;;5080469;28;20019;-57
2022/11/18 15:06:54;;;;;;;7.35;2.00;;;;;;;;;;5080759;28;20048;-58
2022/11/18 15:09:19;;;;;;;8.63;1.75;;;;;;;;;;5087874;28;20013;-57